METAR Data
IDs: Format: Raw Decoded Include TAF

Data at: 2309 UTC 29 May 2020

METAR for:KPRO (Perry Muni, IA, US)
Text:KPRO 292255Z AUTO 35009KT 10SM CLR 23/05 A3013 RMK AO2 T02330046
Temperature: 23.3°C ( 74°F)
Dewpoint: 4.6°C ( 40°F) [RH = 30%]
Pressure (altimeter):30.13 inches Hg (1020.4 mb)
Winds:from the N (350 degrees) at 10 MPH (9 knots; 4.6 m/s)
Visibility:10 or more sm (16+ km)
Ceiling:at least 12,000 feet AGL
Clouds:sky clear below 12,000 feet AGL
QC Flag:automated observation with no human augmentation